Time;durP1;ratioP1;P1;durP2;ratioP2;P2;SDS_P1;SDS_P2;PMS_P1;PMS_P2;Temp;Humidity;BMP_temperature;BMP_pressure;BME280_temperature;BME280_humidity;BME280_pressure;Samples;Min_cycle;Max_cycle;Signal;HPM_P1;HPM_P2
2023/09/27 00:03:12;;;;;;;82.88;37.40;;;;;;;;;;10484238;28;20111;-84
2023/09/27 00:08:14;;;;;;;34.67;22.38;;;;;;;;;;10476283;28;20097;-82
2023/09/27 00:13:15;;;;;;;104.13;36.83;;;;;;;;;;10482440;28;20097;-83
2023/09/27 00:18:16;;;;;;;37.40;25.45;;;;;;;;;;10483276;28;20501;-84
2023/09/27 00:23:17;;;;;;;31.52;19.77;;;;;;;;;;10490878;28;20089;-82
2023/09/27 00:28:18;;;;;;;44.13;26.15;;;;;;;;;;10489831;28;20029;-85
2023/09/27 00:33:19;;;;;;;64.22;28.15;;;;;;;;;;10491050;28;20049;-82
2023/09/27 00:38:20;;;;;;;40.00;25.90;;;;;;;;;;10490063;28;20727;-83
2023/09/27 00:43:31;;;;;;;37.88;25.48;;;;;;;;;;10489679;28;20037;-82
2023/09/27 00:48:32;;;;;;;37.20;22.13;;;;;;;;;;10477784;28;20042;-82
2023/09/27 00:53:34;;;;;;;77.32;29.17;;;;;;;;;;10490882;28;20137;-83
2023/09/27 00:58:35;;;;;;;46.83;25.45;;;;;;;;;;10487655;28;20750;-82
2023/09/27 01:03:37;;;;;;;75.30;33.38;;;;;;;;;;10501614;23;20073;-86
2023/09/27 01:08:38;;;;;;;44.60;26.33;;;;;;;;;;10471596;28;20028;-84
2023/09/27 01:13:39;;;;;;;116.63;38.28;;;;;;;;;;10488082;28;20041;-82
2023/09/27 01:18:40;;;;;;;46.95;28.27;;;;;;;;;;10490042;28;20135;-81
2023/09/27 01:23:41;;;;;;;44.72;28.02;;;;;;;;;;10450447;28;20817;-83
2023/09/27 01:28:44;;;;;;;51.47;27.50;;;;;;;;;;10446317;28;20418;-85
2023/09/27 01:33:46;;;;;;;41.33;24.88;;;;;;;;;;10437988;28;20040;-83
2023/09/27 01:38:47;;;;;;;27.92;20.38;;;;;;;;;;10447138;28;20075;-85
2023/09/27 01:43:48;;;;;;;46.17;22.92;;;;;;;;;;10446629;28;20025;-82
2023/09/27 01:48:50;;;;;;;43.13;22.88;;;;;;;;;;10446649;28;20495;-81
2023/09/27 01:53:51;;;;;;;241.55;35.08;;;;;;;;;;10445501;28;20126;-82
2023/09/27 01:58:52;;;;;;;44.97;28.00;;;;;;;;;;10446658;28;20600;-82
2023/09/27 02:03:53;;;;;;;33.65;22.67;;;;;;;;;;10443993;28;20057;-83
2023/09/27 02:08:54;;;;;;;55.38;28.52;;;;;;;;;;10428782;28;20021;-82
2023/09/27 02:13:56;;;;;;;47.47;29.33;;;;;;;;;;10445127;28;20033;-82
2023/09/27 02:18:57;;;;;;;40.45;27.83;;;;;;;;;;10443801;28;20033;-84
2023/09/27 02:23:58;;;;;;;41.22;25.50;;;;;;;;;;10445459;28;20056;-82
2023/09/27 02:28:59;;;;;;;51.80;29.15;;;;;;;;;;10427220;28;20116;-82
2023/09/27 02:34:00;;;;;;;114.20;35.78;;;;;;;;;;10443238;28;20589;-83
2023/09/27 02:39:01;;;;;;;160.68;38.70;;;;;;;;;;10445203;28;20029;-83
2023/09/27 02:44:03;;;;;;;91.47;25.35;;;;;;;;;;10443656;28;20033;-85
2023/09/27 02:49:11;;;;;;;102.30;32.63;;;;;;;;;;10443814;28;20040;-82
2023/09/27 02:54:14;;;;;;;80.05;34.08;;;;;;;;;;10431484;28;20059;-82
2023/09/27 02:59:15;;;;;;;27.77;17.63;;;;;;;;;;10442628;28;20025;-83
2023/09/27 03:04:16;;;;;;;43.60;22.25;;;;;;;;;;10402116;28;20061;-82
2023/09/27 03:09:18;;;;;;;29.38;19.60;;;;;;;;;;10389523;28;20033;-82
2023/09/27 03:14:19;;;;;;;27.77;18.40;;;;;;;;;;10402535;28;20030;-83
2023/09/27 03:19:22;;;;;;;32.33;18.67;;;;;;;;;;10395753;28;20026;-80
2023/09/27 03:24:25;;;;;;;23.25;16.08;;;;;;;;;;10397882;28;20083;-82
2023/09/27 03:29:26;;;;;;;37.78;20.50;;;;;;;;;;10397847;28;20049;-83
2023/09/27 03:34:27;;;;;;;50.13;20.67;;;;;;;;;;10401493;28;20049;-85
2023/09/27 03:39:28;;;;;;;59.22;24.60;;;;;;;;;;10388948;28;20025;-84
2023/09/27 03:44:29;;;;;;;191.35;30.08;;;;;;;;;;10396861;28;20029;-86
2023/09/27 03:49:30;;;;;;;37.50;20.33;;;;;;;;;;10397936;28;20032;-81
2023/09/27 03:54:32;;;;;;;23.45;14.50;;;;;;;;;;10404097;28;20034;-84
2023/09/27 03:59:33;;;;;;;41.40;16.85;;;;;;;;;;10407272;28;20029;-86
2023/09/27 04:04:34;;;;;;;117.18;25.08;;;;;;;;;;10410117;28;20140;-85
2023/09/27 04:09:35;;;;;;;88.38;25.63;;;;;;;;;;10408222;28;20620;-83
2023/09/27 04:14:36;;;;;;;33.75;16.92;;;;;;;;;;10405493;28;20044;-85
2023/09/27 04:19:38;;;;;;;37.05;17.27;;;;;;;;;;10405173;28;20709;-84
2023/09/27 04:24:39;;;;;;;31.38;16.40;;;;;;;;;;10404038;28;20044;-82
2023/09/27 04:29:40;;;;;;;28.50;16.95;;;;;;;;;;10444160;23;20060;-82
2023/09/27 04:34:41;;;;;;;25.75;18.40;;;;;;;;;;10488386;28;20043;-83
2023/09/27 04:39:48;;;;;;;45.25;19.13;;;;;;;;;;10491087;28;20424;-83
2023/09/27 04:44:50;;;;;;;33.30;19.65;;;;;;;;;;10488852;28;20789;-82
2023/09/27 04:49:51;;;;;;;37.50;18.33;;;;;;;;;;10465863;23;20052;-82
2023/09/27 04:54:56;;;;;;;33.92;18.30;;;;;;;;;;10499120;28;20028;-84
2023/09/27 04:59:57;;;;;;;32.03;19.20;;;;;;;;;;10489998;28;20035;-82
2023/09/27 05:04:58;;;;;;;60.65;19.35;;;;;;;;;;10488378;28;20120;-82
2023/09/27 05:09:59;;;;;;;159.35;26.27;;;;;;;;;;10488960;28;20349;-83
2023/09/27 05:15:00;;;;;;;35.78;19.38;;;;;;;;;;10488592;28;20372;-82
2023/09/27 05:20:06;;;;;;;100.00;26.45;;;;;;;;;;10476548;28;20771;-81
2023/09/27 05:25:10;;;;;;;63.10;27.08;;;;;;;;;;10489480;28;20032;-83
2023/09/27 05:30:22;;;;;;;31.83;22.93;;;;;;;;;;10488155;28;21760;-83
2023/09/27 05:35:29;;;;;;;33.92;22.30;;;;;;;;;;10488461;28;21497;-82
2023/09/27 05:40:31;;;;;;;39.50;26.27;;;;;;;;;;10491148;28;20031;-82
2023/09/27 05:45:32;;;;;;;44.28;28.90;;;;;;;;;;10482533;28;20040;-82
2023/09/27 05:50:44;;;;;;;53.90;28.60;;;;;;;;;;10474776;28;20044;-83
2023/09/27 05:55:47;;;;;;;77.15;33.90;;;;;;;;;;10469185;28;20171;-83
2023/09/27 06:00:49;;;;;;;54.95;30.00;;;;;;;;;;10487898;28;20059;-83
2023/09/27 06:05:50;;;;;;;40.28;26.58;;;;;;;;;;10486387;28;20055;-84
2023/09/27 06:10:51;;;;;;;52.75;31.58;;;;;;;;;;10486939;28;20043;-83
2023/09/27 06:15:54;;;;;;;46.63;29.65;;;;;;;;;;10481129;28;20037;-83
2023/09/27 06:20:55;;;;;;;40.90;27.48;;;;;;;;;;10477547;28;20099;-83
2023/09/27 06:25:56;;;;;;;47.25;30.73;;;;;;;;;;10486393;28;20129;-83
2023/09/27 06:30:57;;;;;;;45.05;30.15;;;;;;;;;;10486347;28;20183;-83
2023/09/27 06:36:01;;;;;;;46.05;29.23;;;;;;;;;;10486268;28;20133;-83
2023/09/27 06:41:02;;;;;;;47.47;30.33;;;;;;;;;;10485093;28;20447;-83
2023/09/27 06:46:10;;;;;;;42.72;27.88;;;;;;;;;;10477807;28;20047;-83
2023/09/27 06:51:13;;;;;;;42.05;28.75;;;;;;;;;;10471887;28;20057;-83
2023/09/27 06:56:14;;;;;;;41.05;27.05;;;;;;;;;;10467480;28;20043;-83
2023/09/27 07:01:16;;;;;;;45.13;28.63;;;;;;;;;;10485648;28;20121;-82
2023/09/27 07:06:17;;;;;;;40.83;27.25;;;;;;;;;;10483649;28;20082;-83
2023/09/27 07:11:23;;;;;;;38.45;25.88;;;;;;;;;;10460353;28;20439;-83
2023/09/27 07:16:28;;;;;;;;;;;;;;;;;;10485014;28;20483;-82
2023/09/27 07:21:30;;;;;;;34.40;23.73;;;;;;;;;;10466357;28;19931;-82
2023/09/27 07:26:31;;;;;;;36.13;23.67;;;;;;;;;;10484986;28;20060;-82
2023/09/27 07:31:32;;;;;;;35.80;23.92;;;;;;;;;;10450437;28;20129;-85
2023/09/27 07:36:33;;;;;;;30.98;22.23;;;;;;;;;;10485655;28;20397;-83
2023/09/27 07:41:35;;;;;;;37.83;22.35;;;;;;;;;;10467014;28;20040;-83
2023/09/27 07:46:36;;;;;;;27.73;19.52;;;;;;;;;;10486319;28;20024;-83
2023/09/27 07:51:38;;;;;;;27.63;19.15;;;;;;;;;;10483952;28;20065;-84
2023/09/27 07:56:39;;;;;;;30.70;19.00;;;;;;;;;;10483800;28;20024;-84
2023/09/27 08:01:41;;;;;;;33.85;19.58;;;;;;;;;;10476214;28;20036;-84
2023/09/27 08:06:45;;;;;;;32.17;18.75;;;;;;;;;;10483670;28;20588;-84
2023/09/27 08:11:46;;;;;;;37.90;20.30;;;;;;;;;;10484302;28;20048;-85
2023/09/27 08:16:47;;;;;;;29.58;18.88;;;;;;;;;;10482284;28;20067;-84
2023/09/27 08:21:48;;;;;;;28.80;17.42;;;;;;;;;;10485098;28;20051;-84
2023/09/27 08:26:49;;;;;;;27.20;17.98;;;;;;;;;;10484598;28;20039;-83
2023/09/27 08:31:50;;;;;;;22.25;16.00;;;;;;;;;;10468277;28;20090;-85
2023/09/27 08:36:52;;;;;;;26.05;16.73;;;;;;;;;;10478330;28;20031;-83
2023/09/27 08:41:56;;;;;;;26.60;14.32;;;;;;;;;;10475040;28;20103;-83
2023/09/27 08:46:57;;;;;;;23.27;15.38;;;;;;;;;;10490474;28;20028;-84
2023/09/27 08:52:07;;;;;;;26.48;14.45;;;;;;;;;;10490000;28;20056;-83
2023/09/27 08:57:08;;;;;;;20.83;13.55;;;;;;;;;;10476462;28;20061;-84
2023/09/27 09:02:10;;;;;;;18.58;12.05;;;;;;;;;;10488465;28;20032;-83
2023/09/27 09:07:11;;;;;;;28.08;12.63;;;;;;;;;;10489562;28;20040;-82
2023/09/27 09:12:12;;;;;;;20.65;12.48;;;;;;;;;;10489500;28;20091;-84
2023/09/27 09:17:18;;;;;;;21.63;11.68;;;;;;;;;;10488880;28;20036;-83
2023/09/27 09:22:19;;;;;;;18.52;9.82;;;;;;;;;;10489402;28;20121;-82
2023/09/27 09:27:20;;;;;;;28.88;11.20;;;;;;;;;;10490558;28;20392;-83
2023/09/27 09:32:21;;;;;;;16.75;10.50;;;;;;;;;;10489440;28;20046;-84
2023/09/27 09:37:23;;;;;;;18.15;10.25;;;;;;;;;;10489364;28;20102;-83
2023/09/27 09:42:33;;;;;;;16.90;9.30;;;;;;;;;;10489026;28;20672;-84
2023/09/27 09:47:35;;;;;;;17.92;9.77;;;;;;;;;;10488760;28;20135;-83
2023/09/27 09:52:39;;;;;;;15.75;7.88;;;;;;;;;;10488380;28;20033;-81
2023/09/27 09:57:41;;;;;;;15.80;7.53;;;;;;;;;;10488285;28;20063;-83
2023/09/27 10:02:49;;;;;;;15.30;7.70;;;;;;;;;;10488082;28;20061;-82
2023/09/27 10:07:51;;;;;;;14.98;8.32;;;;;;;;;;10487389;28;20055;-82
2023/09/27 10:12:53;;;;;;;15.77;8.25;;;;;;;;;;10487825;28;20442;-82
2023/09/27 10:18:14;;;;;;;11.88;6.90;;;;;;;;;;10487005;28;20032;-83
2023/09/27 10:23:15;;;;;;;15.23;7.03;;;;;;;;;;10486909;28;20036;-83
2023/09/27 10:28:16;;;;;;;13.07;7.20;;;;;;;;;;10487302;28;20539;-83
2023/09/27 10:33:19;;;;;;;10.43;6.43;;;;;;;;;;10487062;28;20044;-82
2023/09/27 10:38:20;;;;;;;10.88;6.25;;;;;;;;;;10486915;28;20029;-81
2023/09/27 10:43:40;;;;;;;14.32;6.53;;;;;;;;;;10487497;28;20036;-83
2023/09/27 10:48:43;;;;;;;9.20;5.60;;;;;;;;;;10474308;28;20054;-82
2023/09/27 10:53:45;;;;;;;12.20;6.40;;;;;;;;;;10485724;28;20116;-84
2023/09/27 10:58:50;;;;;;;9.82;5.93;;;;;;;;;;10484489;28;20143;-82
2023/09/27 11:04:00;;;;;;;10.50;5.93;;;;;;;;;;10481919;28;20035;-84
2023/09/27 11:09:16;;;;;;;10.50;5.47;;;;;;;;;;10485610;28;20024;-82
2023/09/27 11:14:31;;;;;;;10.48;5.53;;;;;;;;;;10483902;28;20098;-82
2023/09/27 11:19:32;;;;;;;16.77;5.63;;;;;;;;;;10481304;28;20055;-84
2023/09/27 11:24:37;;;;;;;10.40;5.40;;;;;;;;;;10485583;28;20383;-83
2023/09/27 11:29:38;;;;;;;12.48;5.07;;;;;;;;;;10485927;28;20484;-83
2023/09/27 11:34:39;;;;;;;13.18;5.70;;;;;;;;;;10472191;28;20029;-83
2023/09/27 11:39:50;;;;;;;12.20;5.20;;;;;;;;;;10479481;28;20108;-84
2023/09/27 11:45:03;;;;;;;8.60;5.05;;;;;;;;;;10488025;28;20793;-83
2023/09/27 11:50:04;;;;;;;8.98;4.50;;;;;;;;;;10478205;28;20060;-83
2023/09/27 11:55:06;;;;;;;7.90;5.00;;;;;;;;;;10466519;28;20391;-83
2023/09/27 12:00:08;;;;;;;11.88;4.93;;;;;;;;;;10477583;28;20043;-82
2023/09/27 12:05:19;;;;;;;13.23;4.72;;;;;;;;;;10465387;28;20036;-80
2023/09/27 12:10:26;;;;;;;9.80;4.95;;;;;;;;;;10483750;28;20067;-84
2023/09/27 12:15:28;;;;;;;8.55;4.30;;;;;;;;;;10486636;28;20038;-84
2023/09/27 12:20:30;;;;;;;8.00;4.53;;;;;;;;;;10486148;28;20020;-82
2023/09/27 12:25:33;;;;;;;15.07;3.85;;;;;;;;;;10467953;28;20029;-81
2023/09/27 12:30:34;;;;;;;8.75;4.18;;;;;;;;;;10471064;28;20033;-80
2023/09/27 12:35:35;;;;;;;11.70;4.80;;;;;;;;;;10478643;28;20028;-80
2023/09/27 12:40:36;;;;;;;7.75;4.28;;;;;;;;;;10488235;28;20029;-83
2023/09/27 12:45:38;;;;;;;6.88;3.25;;;;;;;;;;10480794;28;20546;-83
2023/09/27 12:50:42;;;;;;;6.88;3.90;;;;;;;;;;10486156;28;20739;-82
2023/09/27 12:55:43;;;;;;;;;;;;;;;;;;10469547;28;20029;-81
2023/09/27 13:00:45;;;;;;;6.78;3.47;;;;;;;;;;10473764;28;19916;-82
2023/09/27 13:05:46;;;;;;;7.45;3.90;;;;;;;;;;10488396;28;20058;-82
2023/09/27 13:10:47;;;;;;;6.35;3.38;;;;;;;;;;10475196;28;20113;-82
2023/09/27 13:15:48;;;;;;;6.63;3.40;;;;;;;;;;10488135;28;20032;-82
2023/09/27 13:20:49;;;;;;;11.20;3.97;;;;;;;;;;10488712;28;20033;-81
2023/09/27 13:25:53;;;;;;;8.77;3.83;;;;;;;;;;10489542;28;20028;-81
2023/09/27 13:30:55;;;;;;;9.60;3.47;;;;;;;;;;10480671;28;20035;-83
2023/09/27 13:35:59;;;;;;;7.32;3.40;;;;;;;;;;10486738;28;20046;-83
2023/09/27 13:41:00;;;;;;;7.47;4.18;;;;;;;;;;10487780;28;20063;-82
2023/09/27 13:46:02;;;;;;;9.88;3.90;;;;;;;;;;10485042;28;20032;-82
2023/09/27 13:51:04;;;;;;;8.38;4.10;;;;;;;;;;10484020;28;20488;-82
2023/09/27 13:56:05;;;;;;;9.77;3.70;;;;;;;;;;10488623;28;20502;-83
2023/09/27 14:01:06;;;;;;;8.63;4.18;;;;;;;;;;10487231;28;20116;-83
2023/09/27 14:06:07;;;;;;;6.28;4.13;;;;;;;;;;10488732;28;20466;-80
2023/09/27 14:11:12;;;;;;;8.88;4.35;;;;;;;;;;10483426;28;20041;-84
2023/09/27 14:16:16;;;;;;;7.88;3.90;;;;;;;;;;10463102;28;20115;-84
2023/09/27 14:21:17;;;;;;;11.48;3.60;;;;;;;;;;10487696;28;20463;-83
2023/09/27 14:26:19;;;;;;;7.97;3.85;;;;;;;;;;10470288;28;20028;-86
2023/09/27 14:31:28;;;;;;;6.32;3.80;;;;;;;;;;10487277;28;20059;-86
2023/09/27 14:36:29;;;;;;;7.28;4.50;;;;;;;;;;10486524;28;20054;-85
2023/09/27 14:41:31;;;;;;;10.00;4.43;;;;;;;;;;10481472;28;20075;-84
2023/09/27 14:46:33;;;;;;;11.30;5.68;;;;;;;;;;10474336;28;20555;-85
2023/09/27 14:51:34;;;;;;;12.30;5.45;;;;;;;;;;10485940;28;20056;-83
2023/09/27 14:56:35;;;;;;;13.40;5.90;;;;;;;;;;10482493;28;20384;-85
2023/09/27 15:01:36;;;;;;;13.20;5.85;;;;;;;;;;10457232;28;20032;-88
2023/09/27 15:06:37;;;;;;;10.00;5.10;;;;;;;;;;10484808;28;20025;-81
2023/09/27 15:11:42;;;;;;;13.35;6.53;;;;;;;;;;10480384;28;20045;-85
2023/09/27 15:16:43;;;;;;;17.33;9.70;;;;;;;;;;10466236;28;20021;-82
2023/09/27 15:21:44;;;;;;;9.05;5.45;;;;;;;;;;10471793;28;20524;-82
2023/09/27 15:26:46;;;;;;;9.27;5.57;;;;;;;;;;10468015;28;20043;-84
2023/09/27 15:31:47;;;;;;;8.27;4.97;;;;;;;;;;10469727;28;20139;-84
2023/09/27 15:36:51;;;;;;;11.88;5.88;;;;;;;;;;10481442;28;20047;-82
2023/09/27 15:41:52;;;;;;;11.55;4.78;;;;;;;;;;10463262;28;20564;-83
2023/09/27 15:46:53;;;;;;;9.30;5.10;;;;;;;;;;10470361;28;20021;-82
2023/09/27 15:51:54;;;;;;;7.97;5.05;;;;;;;;;;10479439;28;20061;-82
2023/09/27 15:56:55;;;;;;;13.20;5.50;;;;;;;;;;10482082;28;20082;-82
2023/09/27 16:01:56;;;;;;;9.35;5.75;;;;;;;;;;10478955;28;20024;-82
2023/09/27 16:06:57;;;;;;;9.82;5.80;;;;;;;;;;10492328;28;20483;-83
2023/09/27 16:11:58;;;;;;;11.77;6.50;;;;;;;;;;10484399;28;20033;-84
2023/09/27 16:17:00;;;;;;;9.32;6.63;;;;;;;;;;10488102;28;20051;-82
2023/09/27 16:22:01;;;;;;;12.25;7.28;;;;;;;;;;10489391;28;20028;-84
2023/09/27 16:27:02;;;;;;;11.70;6.75;;;;;;;;;;10468381;28;20478;-82
2023/09/27 16:32:03;;;;;;;13.98;8.13;;;;;;;;;;10481936;28;20036;-83
2023/09/27 16:37:04;;;;;;;13.13;7.30;;;;;;;;;;10487124;28;20082;-84
2023/09/27 16:42:05;;;;;;;12.23;7.60;;;;;;;;;;10483297;28;20526;-82
2023/09/27 16:47:06;;;;;;;9.40;6.85;;;;;;;;;;10486417;28;20043;-82
2023/09/27 16:52:07;;;;;;;15.63;8.15;;;;;;;;;;10486490;28;20177;-81
2023/09/27 16:57:09;;;;;;;11.45;7.65;;;;;;;;;;10490890;28;20684;-82
2023/09/27 17:02:10;;;;;;;12.52;7.57;;;;;;;;;;10475428;28;20017;-81
2023/09/27 17:07:11;;;;;;;12.48;7.93;;;;;;;;;;10490301;28;20098;-83
2023/09/27 17:12:19;;;;;;;14.07;9.20;;;;;;;;;;10489334;28;20091;-81
2023/09/27 17:17:20;;;;;;;17.80;9.20;;;;;;;;;;10490874;28;20028;-81
2023/09/27 17:22:21;;;;;;;15.02;8.95;;;;;;;;;;10489883;28;20111;-82
2023/09/27 17:27:22;;;;;;;13.82;8.27;;;;;;;;;;10471824;28;20515;-81
2023/09/27 17:32:23;;;;;;;14.63;8.98;;;;;;;;;;10474378;28;20033;-81
2023/09/27 17:37:24;;;;;;;22.77;9.88;;;;;;;;;;10488841;28;20047;-84
2023/09/27 17:42:25;;;;;;;16.27;9.50;;;;;;;;;;10488387;28;20388;-81
2023/09/27 17:47:27;;;;;;;16.40;9.65;;;;;;;;;;10489005;28;20037;-82
2023/09/27 17:52:35;;;;;;;20.50;9.90;;;;;;;;;;10486481;28;20063;-82
2023/09/27 17:57:36;;;;;;;17.75;11.00;;;;;;;;;;10488885;28;20028;-83
2023/09/27 18:02:37;;;;;;;16.23;11.02;;;;;;;;;;10474719;28;20032;-82
2023/09/27 18:07:45;;;;;;;18.48;12.30;;;;;;;;;;10488115;28;20056;-82
2023/09/27 18:12:46;;;;;;;27.30;14.23;;;;;;;;;;10487025;28;20028;-82
2023/09/27 18:17:47;;;;;;;24.02;15.65;;;;;;;;;;10487857;28;20029;-82
2023/09/27 18:22:48;;;;;;;32.00;17.35;;;;;;;;;;10487100;28;20376;-82
2023/09/27 18:27:49;;;;;;;19.70;13.02;;;;;;;;;;10486474;28;20036;-82
2023/09/27 18:32:50;;;;;;;23.63;12.82;;;;;;;;;;10472488;28;20044;-83
2023/09/27 18:37:51;;;;;;;23.08;13.25;;;;;;;;;;10484544;28;20020;-83
2023/09/27 18:42:52;;;;;;;25.25;14.20;;;;;;;;;;10487104;28;20082;-82
2023/09/27 18:47:53;;;;;;;27.98;16.05;;;;;;;;;;10485259;28;20025;-83
2023/09/27 18:52:54;;;;;;;24.38;13.63;;;;;;;;;;10486303;28;20056;-83
2023/09/27 18:57:55;;;;;;;18.85;13.07;;;;;;;;;;10477252;28;20046;-82
2023/09/27 19:02:56;;;;;;;24.17;13.50;;;;;;;;;;10472219;28;20036;-84
2023/09/27 19:07:57;;;;;;;22.08;12.48;;;;;;;;;;10474075;28;20664;-82
2023/09/27 19:12:59;;;;;;;19.95;12.70;;;;;;;;;;10473551;28;20068;-82
2023/09/27 19:18:00;;;;;;;20.40;13.32;;;;;;;;;;10486204;28;20025;-82
2023/09/27 19:23:01;;;;;;;21.90;12.23;;;;;;;;;;10474582;28;20044;-81
2023/09/27 19:28:02;;;;;;;17.85;12.23;;;;;;;;;;10480003;28;20056;-86
2023/09/27 19:33:03;;;;;;;16.30;11.90;;;;;;;;;;10456809;28;20094;-83
2023/09/27 19:38:04;;;;;;;18.70;12.63;;;;;;;;;;10484363;28;20031;-85
2023/09/27 19:43:05;;;;;;;22.80;12.85;;;;;;;;;;10474925;28;20035;-84
2023/09/27 19:48:07;;;;;;;17.13;12.27;;;;;;;;;;10484663;28;20066;-84
2023/09/27 19:53:09;;;;;;;17.13;12.77;;;;;;;;;;10483909;28;20064;-84
2023/09/27 19:58:10;;;;;;;18.20;12.32;;;;;;;;;;10481590;28;20036;-83
2023/09/27 20:03:11;;;;;;;23.00;13.63;;;;;;;;;;10463262;28;20056;-83
2023/09/27 20:08:12;;;;;;;19.13;13.07;;;;;;;;;;10485096;28;20029;-84
2023/09/27 20:13:13;;;;;;;17.75;11.40;;;;;;;;;;10483008;28;20357;-82
2023/09/27 20:18:14;;;;;;;19.17;13.90;;;;;;;;;;10476944;28;20041;-83
2023/09/27 20:23:15;;;;;;;19.42;12.90;;;;;;;;;;10483966;28;20032;-84
2023/09/27 20:28:16;;;;;;;16.15;11.52;;;;;;;;;;10477384;28;20036;-83
2023/09/27 20:33:17;;;;;;;20.92;14.48;;;;;;;;;;10465008;28;20095;-83
2023/09/27 20:38:18;;;;;;;22.63;15.15;;;;;;;;;;10488324;28;20029;-83
2023/09/27 20:43:19;;;;;;;21.45;12.38;;;;;;;;;;10490839;28;20062;-84
2023/09/27 20:48:27;;;;;;;23.70;15.35;;;;;;;;;;10489552;28;20720;-84
2023/09/27 20:53:28;;;;;;;24.17;16.17;;;;;;;;;;10489916;28;20568;-84
2023/09/27 20:58:29;;;;;;;22.85;16.30;;;;;;;;;;10481160;28;20017;-83
2023/09/27 21:03:30;;;;;;;25.05;15.48;;;;;;;;;;10489149;28;20028;-83
2023/09/27 21:08:31;;;;;;;25.65;16.58;;;;;;;;;;10481728;28;20512;-83
2023/09/27 21:13:32;;;;;;;22.88;16.30;;;;;;;;;;10490314;28;20423;-84
2023/09/27 21:18:33;;;;;;;24.58;16.15;;;;;;;;;;10489410;28;20028;-83
2023/09/27 21:23:34;;;;;;;25.27;16.83;;;;;;;;;;10489646;28;20036;-83
2023/09/27 21:28:36;;;;;;;24.15;16.33;;;;;;;;;;10488440;28;20024;-83
2023/09/27 21:33:37;;;;;;;27.15;17.13;;;;;;;;;;10476415;28;20525;-83
2023/09/27 21:38:38;;;;;;;27.52;18.85;;;;;;;;;;10471331;28;20029;-84
2023/09/27 21:43:39;;;;;;;25.85;16.92;;;;;;;;;;10476496;28;20445;-84
2023/09/27 21:48:40;;;;;;;22.98;15.27;;;;;;;;;;10478870;28;20032;-84
2023/09/27 21:53:42;;;;;;;26.17;15.82;;;;;;;;;;10488203;28;20585;-83
2023/09/27 21:58:43;;;;;;;24.65;16.58;;;;;;;;;;10488659;28;20032;-83
2023/09/27 22:03:44;;;;;;;26.13;16.65;;;;;;;;;;10478020;28;20058;-84
2023/09/27 22:08:48;;;;;;;26.42;17.67;;;;;;;;;;10487777;28;20027;-83
2023/09/27 22:13:50;;;;;;;29.42;17.75;;;;;;;;;;10473253;28;20065;-83
2023/09/27 22:18:51;;;;;;;18.85;13.93;;;;;;;;;;10482424;28;20082;-84
2023/09/27 22:23:55;;;;;;;26.05;15.85;;;;;;;;;;10487479;28;20049;-83
2023/09/27 22:28:56;;;;;;;28.10;17.57;;;;;;;;;;10485581;28;20170;-84
2023/09/27 22:34:04;;;;;;;21.67;13.70;;;;;;;;;;10457449;28;20484;-83
2023/09/27 22:39:11;;;;;;;26.48;16.48;;;;;;;;;;10485664;28;20024;-84
2023/09/27 22:44:21;;;;;;;23.58;15.88;;;;;;;;;;10476937;28;20032;-83
2023/09/27 22:49:23;;;;;;;22.65;15.05;;;;;;;;;;10485625;28;20860;-83
2023/09/27 22:54:30;;;;;;;27.67;15.63;;;;;;;;;;10480154;28;20040;-84
2023/09/27 22:59:31;;;;;;;20.50;15.02;;;;;;;;;;10479945;28;20036;-83
2023/09/27 23:04:32;;;;;;;20.77;14.75;;;;;;;;;;10473447;28;20032;-83
2023/09/27 23:09:34;;;;;;;22.40;13.75;;;;;;;;;;10447343;28;20035;-84
2023/09/27 23:15:00;;;;;;;18.50;13.45;;;;;;;;;;10450351;28;20044;-84
2023/09/27 23:19:56;;;;;;;18.92;13.80;;;;;;;;;;10471600;28;20123;-84
2023/09/27 23:25:37;;;;;;;26.75;16.48;;;;;;;;;;10467326;28;20035;-83
2023/09/27 23:30:49;;;;;;;21.33;13.70;;;;;;;;;;10473036;28;20084;-84
2023/09/27 23:35:50;;;;;;;25.17;15.43;;;;;;;;;;10471569;28;20459;-84
2023/09/27 23:40:51;;;;;;;24.63;16.15;;;;;;;;;;10484932;28;20078;-83
2023/09/27 23:45:52;;;;;;;22.45;15.38;;;;;;;;;;10484135;28;20069;-84
2023/09/27 23:51:02;;;;;;;27.13;15.13;;;;;;;;;;10475444;28;20078;-84
2023/09/27 23:56:06;;;;;;;16.67;12.00;;;;;;;;;;10484405;28;20024;-83
